sensor_id;sensor_type;location;lat;lon;timestamp;P1;durP1;ratioP1;P2;durP2;ratioP2
38379;SDS011;38377;47.418;18.882;2024-01-15T00:02:23;48.93;;;27.03;;
38379;SDS011;38377;47.418;18.882;2024-01-15T00:04:49;47.43;;;26.53;;
38379;SDS011;38377;47.418;18.882;2024-01-15T00:07:14;47.50;;;26.83;;
38379;SDS011;38377;47.418;18.882;2024-01-15T00:09:40;50.53;;;27.17;;
38379;SDS011;38377;47.418;18.882;2024-01-15T00:12:05;44.50;;;23.83;;
38379;SDS011;38377;47.418;18.882;2024-01-15T00:14:31;37.33;;;21.53;;
38379;SDS011;38377;47.418;18.882;2024-01-15T00:16:57;44.00;;;23.13;;
38379;SDS011;38377;47.418;18.882;2024-01-15T00:19:22;40.73;;;23.73;;
38379;SDS011;38377;47.418;18.882;2024-01-15T00:21:49;41.67;;;22.57;;
38379;SDS011;38377;47.418;18.882;2024-01-15T00:24:15;40.20;;;22.40;;
38379;SDS011;38377;47.418;18.882;2024-01-15T00:26:40;38.77;;;21.57;;
38379;SDS011;38377;47.418;18.882;2024-01-15T00:29:06;42.90;;;22.33;;
38379;SDS011;38377;47.418;18.882;2024-01-15T00:31:33;43.00;;;22.90;;
38379;SDS011;38377;47.418;18.882;2024-01-15T00:33:58;41.43;;;20.87;;
38379;SDS011;38377;47.418;18.882;2024-01-15T00:36:24;41.33;;;22.37;;
38379;SDS011;38377;47.418;18.882;2024-01-15T00:38:50;42.53;;;22.97;;
38379;SDS011;38377;47.418;18.882;2024-01-15T00:41:16;38.80;;;22.63;;
38379;SDS011;38377;47.418;18.882;2024-01-15T00:43:43;40.37;;;21.87;;
38379;SDS011;38377;47.418;18.882;2024-01-15T00:46:14;43.55;;;22.90;;
38379;SDS011;38377;47.418;18.882;2024-01-15T00:48:39;43.73;;;22.87;;
38379;SDS011;38377;47.418;18.882;2024-01-15T00:51:05;42.83;;;21.90;;
38379;SDS011;38377;47.418;18.882;2024-01-15T00:53:31;43.23;;;22.20;;
38379;SDS011;38377;47.418;18.882;2024-01-15T00:55:57;42.90;;;22.67;;
38379;SDS011;38377;47.418;18.882;2024-01-15T00:58:22;41.87;;;24.13;;
38379;SDS011;38377;47.418;18.882;2024-01-15T01:00:48;42.57;;;24.23;;
38379;SDS011;38377;47.418;18.882;2024-01-15T01:03:13;47.87;;;24.67;;
38379;SDS011;38377;47.418;18.882;2024-01-15T01:05:39;40.40;;;24.03;;
38379;SDS011;38377;47.418;18.882;2024-01-15T01:08:05;43.37;;;23.43;;
38379;SDS011;38377;47.418;18.882;2024-01-15T01:10:30;42.67;;;23.50;;
38379;SDS011;38377;47.418;18.882;2024-01-15T01:12:56;46.40;;;24.27;;
38379;SDS011;38377;47.418;18.882;2024-01-15T01:15:22;51.33;;;26.57;;
38379;SDS011;38377;47.418;18.882;2024-01-15T01:17:47;45.10;;;24.33;;
38379;SDS011;38377;47.418;18.882;2024-01-15T01:20:13;45.70;;;25.93;;
38379;SDS011;38377;47.418;18.882;2024-01-15T01:22:40;44.67;;;24.77;;
38379;SDS011;38377;47.418;18.882;2024-01-15T01:25:06;49.13;;;25.27;;
38379;SDS011;38377;47.418;18.882;2024-01-15T01:27:31;40.93;;;23.27;;
38379;SDS011;38377;47.418;18.882;2024-01-15T01:29:57;47.80;;;25.67;;
38379;SDS011;38377;47.418;18.882;2024-01-15T01:32:23;44.10;;;25.97;;
38379;SDS011;38377;47.418;18.882;2024-01-15T01:34:48;49.10;;;25.63;;
38379;SDS011;38377;47.418;18.882;2024-01-15T01:37:14;49.90;;;27.27;;
38379;SDS011;38377;47.418;18.882;2024-01-15T01:39:40;54.20;;;28.77;;
38379;SDS011;38377;47.418;18.882;2024-01-15T01:42:06;50.57;;;27.77;;
38379;SDS011;38377;47.418;18.882;2024-01-15T01:44:32;47.73;;;26.60;;
38379;SDS011;38377;47.418;18.882;2024-01-15T01:46:58;53.80;;;27.80;;
38379;SDS011;38377;47.418;18.882;2024-01-15T01:49:25;55.07;;;28.87;;
38379;SDS011;38377;47.418;18.882;2024-01-15T01:51:51;55.77;;;29.33;;
38379;SDS011;38377;47.418;18.882;2024-01-15T01:54:18;54.13;;;31.27;;
38379;SDS011;38377;47.418;18.882;2024-01-15T01:56:45;64.83;;;33.27;;
38379;SDS011;38377;47.418;18.882;2024-01-15T01:59:13;57.57;;;30.73;;
38379;SDS011;38377;47.418;18.882;2024-01-15T02:01:39;58.83;;;32.87;;
38379;SDS011;38377;47.418;18.882;2024-01-15T02:04:06;61.97;;;32.90;;
38379;SDS011;38377;47.418;18.882;2024-01-15T02:06:31;58.77;;;33.50;;
38379;SDS011;38377;47.418;18.882;2024-01-15T02:08:58;60.73;;;33.80;;
38379;SDS011;38377;47.418;18.882;2024-01-15T02:11:24;61.93;;;33.07;;
38379;SDS011;38377;47.418;18.882;2024-01-15T02:13:49;61.73;;;32.30;;
38379;SDS011;38377;47.418;18.882;2024-01-15T02:16:15;60.07;;;31.93;;
38379;SDS011;38377;47.418;18.882;2024-01-15T02:18:45;61.80;;;33.73;;
38379;SDS011;38377;47.418;18.882;2024-01-15T02:21:11;59.28;;;31.25;;
38379;SDS011;38377;47.418;18.882;2024-01-15T02:23:37;56.00;;;31.37;;
38379;SDS011;38377;47.418;18.882;2024-01-15T02:26:04;57.23;;;30.83;;
38379;SDS011;38377;47.418;18.882;2024-01-15T02:28:30;59.50;;;31.20;;
38379;SDS011;38377;47.418;18.882;2024-01-15T02:30:57;58.83;;;33.00;;
38379;SDS011;38377;47.418;18.882;2024-01-15T02:33:22;56.03;;;31.77;;
38379;SDS011;38377;47.418;18.882;2024-01-15T02:35:48;60.07;;;32.23;;
38379;SDS011;38377;47.418;18.882;2024-01-15T02:38:15;58.17;;;30.67;;
38379;SDS011;38377;47.418;18.882;2024-01-15T02:40:41;57.40;;;31.63;;
38379;SDS011;38377;47.418;18.882;2024-01-15T02:43:07;57.73;;;33.00;;
38379;SDS011;38377;47.418;18.882;2024-01-15T02:45:33;61.43;;;33.97;;
38379;SDS011;38377;47.418;18.882;2024-01-15T02:47:59;60.20;;;32.10;;
38379;SDS011;38377;47.418;18.882;2024-01-15T02:50:24;58.70;;;31.97;;
38379;SDS011;38377;47.418;18.882;2024-01-15T02:52:50;62.30;;;32.70;;
38379;SDS011;38377;47.418;18.882;2024-01-15T02:55:15;65.80;;;33.63;;
38379;SDS011;38377;47.418;18.882;2024-01-15T02:57:41;59.27;;;33.33;;
38379;SDS011;38377;47.418;18.882;2024-01-15T03:00:07;68.70;;;34.07;;
38379;SDS011;38377;47.418;18.882;2024-01-15T03:02:35;69.03;;;33.30;;
38379;SDS011;38377;47.418;18.882;2024-01-15T03:05:02;62.67;;;33.83;;
38379;SDS011;38377;47.418;18.882;2024-01-15T03:07:27;60.07;;;32.63;;
38379;SDS011;38377;47.418;18.882;2024-01-15T03:09:53;62.63;;;32.43;;
38379;SDS011;38377;47.418;18.882;2024-01-15T03:12:19;65.47;;;33.83;;
38379;SDS011;38377;47.418;18.882;2024-01-15T03:14:44;61.17;;;32.20;;
38379;SDS011;38377;47.418;18.882;2024-01-15T03:17:10;57.40;;;33.87;;
38379;SDS011;38377;47.418;18.882;2024-01-15T03:19:37;57.07;;;31.50;;
38379;SDS011;38377;47.418;18.882;2024-01-15T03:22:02;61.93;;;32.90;;
38379;SDS011;38377;47.418;18.882;2024-01-15T03:24:28;62.13;;;33.60;;
38379;SDS011;38377;47.418;18.882;2024-01-15T03:26:54;62.47;;;33.37;;
38379;SDS011;38377;47.418;18.882;2024-01-15T03:29:20;65.23;;;33.93;;
38379;SDS011;38377;47.418;18.882;2024-01-15T03:31:47;64.53;;;33.93;;
38379;SDS011;38377;47.418;18.882;2024-01-15T03:34:12;62.90;;;33.53;;
38379;SDS011;38377;47.418;18.882;2024-01-15T03:36:38;61.40;;;32.80;;
38379;SDS011;38377;47.418;18.882;2024-01-15T03:39:03;66.23;;;32.47;;
38379;SDS011;38377;47.418;18.882;2024-01-15T03:41:29;60.83;;;32.90;;
38379;SDS011;38377;47.418;18.882;2024-01-15T03:43:54;64.83;;;34.47;;
38379;SDS011;38377;47.418;18.882;2024-01-15T03:46:20;67.07;;;35.10;;
38379;SDS011;38377;47.418;18.882;2024-01-15T03:48:45;60.80;;;32.87;;
38379;SDS011;38377;47.418;18.882;2024-01-15T03:51:11;68.50;;;34.77;;
38379;SDS011;38377;47.418;18.882;2024-01-15T03:53:37;62.73;;;33.67;;
38379;SDS011;38377;47.418;18.882;2024-01-15T03:56:04;62.80;;;33.70;;
38379;SDS011;38377;47.418;18.882;2024-01-15T03:58:29;63.93;;;32.37;;
38379;SDS011;38377;47.418;18.882;2024-01-15T04:00:55;67.13;;;34.47;;
38379;SDS011;38377;47.418;18.882;2024-01-15T04:03:21;63.10;;;33.20;;
38379;SDS011;38377;47.418;18.882;2024-01-15T04:05:46;62.90;;;32.70;;
38379;SDS011;38377;47.418;18.882;2024-01-15T04:08:12;62.83;;;33.40;;
38379;SDS011;38377;47.418;18.882;2024-01-15T04:10:37;62.33;;;33.80;;
38379;SDS011;38377;47.418;18.882;2024-01-15T04:13:03;63.17;;;33.53;;
38379;SDS011;38377;47.418;18.882;2024-01-15T04:15:29;60.47;;;33.80;;
38379;SDS011;38377;47.418;18.882;2024-01-15T04:17:54;65.77;;;34.10;;
38379;SDS011;38377;47.418;18.882;2024-01-15T04:20:20;61.27;;;33.27;;
38379;SDS011;38377;47.418;18.882;2024-01-15T04:22:45;66.27;;;33.40;;
38379;SDS011;38377;47.418;18.882;2024-01-15T04:25:11;65.07;;;33.73;;
38379;SDS011;38377;47.418;18.882;2024-01-15T04:27:39;58.17;;;32.27;;
38379;SDS011;38377;47.418;18.882;2024-01-15T04:30:05;62.80;;;33.57;;
38379;SDS011;38377;47.418;18.882;2024-01-15T04:32:31;62.70;;;33.67;;
38379;SDS011;38377;47.418;18.882;2024-01-15T04:34:57;63.90;;;33.97;;
38379;SDS011;38377;47.418;18.882;2024-01-15T04:37:22;61.27;;;33.97;;
38379;SDS011;38377;47.418;18.882;2024-01-15T04:39:48;64.03;;;33.50;;
38379;SDS011;38377;47.418;18.882;2024-01-15T04:42:13;61.60;;;33.77;;
38379;SDS011;38377;47.418;18.882;2024-01-15T04:44:39;67.60;;;34.10;;
38379;SDS011;38377;47.418;18.882;2024-01-15T04:47:05;76.20;;;38.30;;
38379;SDS011;38377;47.418;18.882;2024-01-15T04:49:30;72.17;;;37.37;;
38379;SDS011;38377;47.418;18.882;2024-01-15T04:51:56;72.53;;;38.50;;
38379;SDS011;38377;47.418;18.882;2024-01-15T04:54:21;71.73;;;37.47;;
38379;SDS011;38377;47.418;18.882;2024-01-15T04:56:47;69.73;;;38.00;;
38379;SDS011;38377;47.418;18.882;2024-01-15T04:59:15;74.33;;;38.73;;
38379;SDS011;38377;47.418;18.882;2024-01-15T05:01:41;73.97;;;38.03;;
38379;SDS011;38377;47.418;18.882;2024-01-15T05:04:07;72.30;;;36.17;;
38379;SDS011;38377;47.418;18.882;2024-01-15T05:06:32;62.87;;;35.30;;
38379;SDS011;38377;47.418;18.882;2024-01-15T05:08:58;71.73;;;35.97;;
38379;SDS011;38377;47.418;18.882;2024-01-15T05:11:24;69.97;;;36.27;;
38379;SDS011;38377;47.418;18.882;2024-01-15T05:13:50;70.30;;;36.63;;
38379;SDS011;38377;47.418;18.882;2024-01-15T05:16:15;72.27;;;37.97;;
38379;SDS011;38377;47.418;18.882;2024-01-15T05:18:41;67.50;;;36.73;;
38379;SDS011;38377;47.418;18.882;2024-01-15T05:21:07;69.90;;;36.83;;
38379;SDS011;38377;47.418;18.882;2024-01-15T05:23:33;73.70;;;38.60;;
38379;SDS011;38377;47.418;18.882;2024-01-15T05:25:59;74.10;;;37.63;;
38379;SDS011;38377;47.418;18.882;2024-01-15T05:28:24;70.97;;;37.57;;
38379;SDS011;38377;47.418;18.882;2024-01-15T05:30:50;72.03;;;35.87;;
38379;SDS011;38377;47.418;18.882;2024-01-15T05:33:16;71.63;;;36.30;;
38379;SDS011;38377;47.418;18.882;2024-01-15T05:35:42;73.37;;;36.33;;
38379;SDS011;38377;47.418;18.882;2024-01-15T05:38:08;73.53;;;38.47;;
38379;SDS011;38377;47.418;18.882;2024-01-15T05:40:33;69.23;;;36.70;;
38379;SDS011;38377;47.418;18.882;2024-01-15T05:42:59;72.80;;;35.70;;
38379;SDS011;38377;47.418;18.882;2024-01-15T05:45:29;78.53;;;43.63;;
38379;SDS011;38377;47.418;18.882;2024-01-15T05:47:55;71.80;;;37.50;;
38379;SDS011;38377;47.418;18.882;2024-01-15T05:50:21;70.17;;;37.23;;
38379;SDS011;38377;47.418;18.882;2024-01-15T05:52:47;63.43;;;33.93;;
38379;SDS011;38377;47.418;18.882;2024-01-15T05:55:13;74.77;;;37.23;;
38379;SDS011;38377;47.418;18.882;2024-01-15T05:57:38;66.67;;;36.67;;
38379;SDS011;38377;47.418;18.882;2024-01-15T06:00:04;66.23;;;32.70;;
38379;SDS011;38377;47.418;18.882;2024-01-15T06:02:30;70.93;;;35.07;;
38379;SDS011;38377;47.418;18.882;2024-01-15T06:04:56;62.60;;;34.07;;
38379;SDS011;38377;47.418;18.882;2024-01-15T06:07:22;66.20;;;34.33;;
38379;SDS011;38377;47.418;18.882;2024-01-15T06:09:48;76.37;;;38.50;;
38379;SDS011;38377;47.418;18.882;2024-01-15T06:12:13;78.43;;;41.23;;
38379;SDS011;38377;47.418;18.882;2024-01-15T06:14:39;76.20;;;38.37;;
38379;SDS011;38377;47.418;18.882;2024-01-15T06:17:06;76.00;;;38.57;;
38379;SDS011;38377;47.418;18.882;2024-01-15T06:19:31;73.80;;;36.90;;
38379;SDS011;38377;47.418;18.882;2024-01-15T06:21:57;78.77;;;38.30;;
38379;SDS011;38377;47.418;18.882;2024-01-15T06:24:22;70.53;;;36.97;;
38379;SDS011;38377;47.418;18.882;2024-01-15T06:26:48;69.53;;;34.73;;
38379;SDS011;38377;47.418;18.882;2024-01-15T06:29:14;68.43;;;34.50;;
38379;SDS011;38377;47.418;18.882;2024-01-15T06:31:39;67.70;;;36.37;;
38379;SDS011;38377;47.418;18.882;2024-01-15T06:34:05;70.67;;;34.70;;
38379;SDS011;38377;47.418;18.882;2024-01-15T06:36:31;79.50;;;35.60;;
38379;SDS011;38377;47.418;18.882;2024-01-15T06:38:56;70.17;;;35.93;;
38379;SDS011;38377;47.418;18.882;2024-01-15T06:41:22;63.07;;;35.33;;
38379;SDS011;38377;47.418;18.882;2024-01-15T06:43:47;60.33;;;32.73;;
38379;SDS011;38377;47.418;18.882;2024-01-15T06:46:19;59.20;;;33.37;;
38379;SDS011;38377;47.418;18.882;2024-01-15T06:48:48;57.33;;;32.57;;
38379;SDS011;38377;47.418;18.882;2024-01-15T06:51:15;62.20;;;31.40;;
38379;SDS011;38377;47.418;18.882;2024-01-15T06:53:41;61.33;;;31.30;;
38379;SDS011;38377;47.418;18.882;2024-01-15T06:56:06;69.70;;;37.13;;
38379;SDS011;38377;47.418;18.882;2024-01-15T06:58:32;63.93;;;34.37;;
38379;SDS011;38377;47.418;18.882;2024-01-15T07:00:58;55.10;;;31.20;;
38379;SDS011;38377;47.418;18.882;2024-01-15T07:03:24;59.07;;;31.37;;
38379;SDS011;38377;47.418;18.882;2024-01-15T07:05:49;54.87;;;28.27;;
38379;SDS011;38377;47.418;18.882;2024-01-15T07:08:15;61.27;;;29.70;;
38379;SDS011;38377;47.418;18.882;2024-01-15T07:10:40;63.03;;;33.07;;
38379;SDS011;38377;47.418;18.882;2024-01-15T07:13:06;87.10;;;45.93;;
38379;SDS011;38377;47.418;18.882;2024-01-15T07:15:32;86.23;;;44.57;;
38379;SDS011;38377;47.418;18.882;2024-01-15T07:18:00;94.80;;;49.87;;
38379;SDS011;38377;47.418;18.882;2024-01-15T07:20:25;83.47;;;42.90;;
38379;SDS011;38377;47.418;18.882;2024-01-15T07:22:51;68.27;;;36.90;;
38379;SDS011;38377;47.418;18.882;2024-01-15T07:25:16;56.73;;;29.67;;
38379;SDS011;38377;47.418;18.882;2024-01-15T07:27:42;49.43;;;28.30;;
38379;SDS011;38377;47.418;18.882;2024-01-15T07:30:10;56.07;;;32.50;;
38379;SDS011;38377;47.418;18.882;2024-01-15T07:32:36;46.63;;;28.17;;
38379;SDS011;38377;47.418;18.882;2024-01-15T07:35:02;56.33;;;29.90;;
38379;SDS011;38377;47.418;18.882;2024-01-15T07:37:28;45.07;;;25.20;;
38379;SDS011;38377;47.418;18.882;2024-01-15T07:39:54;44.80;;;24.50;;
38379;SDS011;38377;47.418;18.882;2024-01-15T07:42:22;37.77;;;22.80;;
38379;SDS011;38377;47.418;18.882;2024-01-15T07:44:47;40.63;;;22.80;;
38379;SDS011;38377;47.418;18.882;2024-01-15T07:47:13;48.27;;;25.20;;
38379;SDS011;38377;47.418;18.882;2024-01-15T07:49:38;76.13;;;31.40;;
38379;SDS011;38377;47.418;18.882;2024-01-15T07:52:04;35.03;;;19.40;;
38379;SDS011;38377;47.418;18.882;2024-01-15T07:54:30;42.13;;;21.93;;
38379;SDS011;38377;47.418;18.882;2024-01-15T07:56:57;102.50;;;40.27;;
38379;SDS011;38377;47.418;18.882;2024-01-15T07:59:28;69.03;;;31.17;;
38379;SDS011;38377;47.418;18.882;2024-01-15T08:01:54;41.70;;;22.10;;
38379;SDS011;38377;47.418;18.882;2024-01-15T08:04:19;45.47;;;23.57;;
38379;SDS011;38377;47.418;18.882;2024-01-15T08:06:46;36.43;;;19.20;;
38379;SDS011;38377;47.418;18.882;2024-01-15T08:09:12;33.53;;;16.37;;
38379;SDS011;38377;47.418;18.882;2024-01-15T08:11:41;26.33;;;16.00;;
38379;SDS011;38377;47.418;18.882;2024-01-15T08:14:07;44.20;;;22.03;;
38379;SDS011;38377;47.418;18.882;2024-01-15T08:16:34;35.87;;;18.60;;
38379;SDS011;38377;47.418;18.882;2024-01-15T08:19:00;28.07;;;16.20;;
38379;SDS011;38377;47.418;18.882;2024-01-15T08:21:28;38.83;;;20.23;;
38379;SDS011;38377;47.418;18.882;2024-01-15T08:26:23;35.47;;;19.80;;
38379;SDS011;38377;47.418;18.882;2024-01-15T08:28:48;31.50;;;16.70;;
38379;SDS011;38377;47.418;18.882;2024-01-15T08:31:14;26.23;;;16.43;;
38379;SDS011;38377;47.418;18.882;2024-01-15T08:33:40;23.53;;;13.57;;
38379;SDS011;38377;47.418;18.882;2024-01-15T08:36:06;24.63;;;14.37;;
38379;SDS011;38377;47.418;18.882;2024-01-15T08:38:31;24.17;;;15.27;;
38379;SDS011;38377;47.418;18.882;2024-01-15T08:40:57;25.43;;;14.57;;
38379;SDS011;38377;47.418;18.882;2024-01-15T08:43:25;27.93;;;15.57;;
38379;SDS011;38377;47.418;18.882;2024-01-15T08:45:53;27.00;;;15.20;;
38379;SDS011;38377;47.418;18.882;2024-01-15T08:48:19;27.93;;;15.70;;
38379;SDS011;38377;47.418;18.882;2024-01-15T08:50:47;29.33;;;15.17;;
38379;SDS011;38377;47.418;18.882;2024-01-15T08:53:13;35.33;;;15.70;;
38379;SDS011;38377;47.418;18.882;2024-01-15T08:55:39;24.90;;;13.67;;
38379;SDS011;38377;47.418;18.882;2024-01-15T08:58:04;26.47;;;15.47;;
38379;SDS011;38377;47.418;18.882;2024-01-15T09:00:31;22.30;;;12.60;;
38379;SDS011;38377;47.418;18.882;2024-01-15T09:02:56;22.70;;;13.17;;
38379;SDS011;38377;47.418;18.882;2024-01-15T09:05:22;20.27;;;12.67;;
38379;SDS011;38377;47.418;18.882;2024-01-15T09:07:48;27.30;;;13.97;;
38379;SDS011;38377;47.418;18.882;2024-01-15T09:10:16;21.00;;;12.30;;
38379;SDS011;38377;47.418;18.882;2024-01-15T09:12:42;18.90;;;12.37;;
38379;SDS011;38377;47.418;18.882;2024-01-15T09:15:07;21.80;;;12.23;;
38379;SDS011;38377;47.418;18.882;2024-01-15T09:17:33;22.50;;;13.07;;
38379;SDS011;38377;47.418;18.882;2024-01-15T09:20:01;21.90;;;12.30;;
38379;SDS011;38377;47.418;18.882;2024-01-15T09:22:26;20.07;;;12.87;;
38379;SDS011;38377;47.418;18.882;2024-01-15T09:24:52;21.23;;;12.60;;
38379;SDS011;38377;47.418;18.882;2024-01-15T09:27:20;20.03;;;11.33;;
38379;SDS011;38377;47.418;18.882;2024-01-15T09:29:46;18.43;;;11.03;;
38379;SDS011;38377;47.418;18.882;2024-01-15T09:32:11;18.47;;;10.73;;
38379;SDS011;38377;47.418;18.882;2024-01-15T09:34:37;17.60;;;10.63;;
38379;SDS011;38377;47.418;18.882;2024-01-15T09:37:03;19.93;;;11.00;;
38379;SDS011;38377;47.418;18.882;2024-01-15T09:39:29;18.37;;;9.77;;
38379;SDS011;38377;47.418;18.882;2024-01-15T09:41:55;17.87;;;10.00;;
38379;SDS011;38377;47.418;18.882;2024-01-15T09:44:22;13.73;;;9.63;;
38379;SDS011;38377;47.418;18.882;2024-01-15T09:46:48;16.97;;;10.30;;
38379;SDS011;38377;47.418;18.882;2024-01-15T09:49:17;16.17;;;10.23;;
38379;SDS011;38377;47.418;18.882;2024-01-15T09:51:43;17.13;;;9.37;;
38379;SDS011;38377;47.418;18.882;2024-01-15T09:54:09;19.47;;;10.90;;
38379;SDS011;38377;47.418;18.882;2024-01-15T09:56:35;15.43;;;9.20;;
38379;SDS011;38377;47.418;18.882;2024-01-15T09:59:01;16.00;;;8.77;;
38379;SDS011;38377;47.418;18.882;2024-01-15T10:01:29;14.40;;;8.37;;
38379;SDS011;38377;47.418;18.882;2024-01-15T10:03:57;14.43;;;8.30;;
38379;SDS011;38377;47.418;18.882;2024-01-15T10:06:24;16.13;;;7.73;;
38379;SDS011;38377;47.418;18.882;2024-01-15T10:08:52;13.90;;;7.83;;
38379;SDS011;38377;47.418;18.882;2024-01-15T10:11:19;11.53;;;6.87;;
38379;SDS011;38377;47.418;18.882;2024-01-15T10:13:45;11.70;;;6.73;;
38379;SDS011;38377;47.418;18.882;2024-01-15T10:16:11;10.57;;;6.10;;
38379;SDS011;38377;47.418;18.882;2024-01-15T10:18:37;8.57;;;5.80;;
38379;SDS011;38377;47.418;18.882;2024-01-15T10:21:05;11.67;;;6.67;;
38379;SDS011;38377;47.418;18.882;2024-01-15T10:23:32;9.27;;;5.40;;
38379;SDS011;38377;47.418;18.882;2024-01-15T10:25:58;8.73;;;5.27;;
38379;SDS011;38377;47.418;18.882;2024-01-15T10:28:25;8.73;;;5.03;;
38379;SDS011;38377;47.418;18.882;2024-01-15T10:30:52;7.77;;;5.10;;
38379;SDS011;38377;47.418;18.882;2024-01-15T10:33:24;8.43;;;5.33;;
38379;SDS011;38377;47.418;18.882;2024-01-15T10:35:53;8.57;;;4.63;;
38379;SDS011;38377;47.418;18.882;2024-01-15T10:38:22;8.90;;;4.83;;
38379;SDS011;38377;47.418;18.882;2024-01-15T10:40:52;12.57;;;4.90;;
38379;SDS011;38377;47.418;18.882;2024-01-15T10:43:19;8.17;;;4.63;;
38379;SDS011;38377;47.418;18.882;2024-01-15T10:45:45;9.40;;;5.17;;
38379;SDS011;38377;47.418;18.882;2024-01-15T10:48:11;7.77;;;4.97;;
38379;SDS011;38377;47.418;18.882;2024-01-15T10:50:38;8.40;;;4.60;;
38379;SDS011;38377;47.418;18.882;2024-01-15T10:53:04;7.70;;;4.30;;
38379;SDS011;38377;47.418;18.882;2024-01-15T10:55:30;6.10;;;4.38;;
38379;SDS011;38377;47.418;18.882;2024-01-15T10:57:58;8.27;;;4.28;;
38379;SDS011;38377;47.418;18.882;2024-01-15T11:00:24;8.70;;;4.28;;
38379;SDS011;38377;47.418;18.882;2024-01-15T11:02:51;7.38;;;4.25;;
38379;SDS011;38377;47.418;18.882;2024-01-15T11:05:20;6.50;;;4.10;;
38379;SDS011;38377;47.418;18.882;2024-01-15T11:07:48;7.47;;;4.63;;
38379;SDS011;38377;47.418;18.882;2024-01-15T11:13:52;9.57;;;3.90;;
38379;SDS011;38377;47.418;18.882;2024-01-15T11:18:39;6.70;;;4.20;;
38379;SDS011;38377;47.418;18.882;2024-01-15T11:23:43;8.67;;;4.47;;
38379;SDS011;38377;47.418;18.882;2024-01-15T11:28:55;10.37;;;6.17;;
38379;SDS011;38377;47.418;18.882;2024-01-15T11:34:05;28.67;;;12.32;;
38379;SDS011;38377;47.418;18.882;2024-01-15T11:41:55;24.95;;;10.80;;
38379;SDS011;38377;47.418;18.882;2024-01-15T11:44:30;10.10;;;5.25;;
38379;SDS011;38377;47.418;18.882;2024-01-15T11:46:59;20.53;;;10.60;;
38379;SDS011;38377;47.418;18.882;2024-01-15T11:52:16;10.02;;;5.22;;
38379;SDS011;38377;47.418;18.882;2024-01-15T11:55:07;11.15;;;6.38;;
38379;SDS011;38377;47.418;18.882;2024-01-15T11:57:45;13.32;;;6.50;;
38379;SDS011;38377;47.418;18.882;2024-01-15T12:00:15;8.10;;;4.93;;
38379;SDS011;38377;47.418;18.882;2024-01-15T12:02:41;6.88;;;4.00;;
38379;SDS011;38377;47.418;18.882;2024-01-15T12:05:08;7.33;;;4.73;;
38379;SDS011;38377;47.418;18.882;2024-01-15T12:07:34;6.80;;;4.05;;
38379;SDS011;38377;47.418;18.882;2024-01-15T12:10:01;8.57;;;4.83;;
38379;SDS011;38377;47.418;18.882;2024-01-15T12:12:29;5.93;;;3.97;;
38379;SDS011;38377;47.418;18.882;2024-01-15T12:15:09;4.17;;;2.63;;
38379;SDS011;38377;47.418;18.882;2024-01-15T12:17:35;5.90;;;2.40;;
38379;SDS011;38377;47.418;18.882;2024-01-15T12:20:02;6.32;;;2.78;;
38379;SDS011;38377;47.418;18.882;2024-01-15T12:22:31;8.15;;;3.25;;
38379;SDS011;38377;47.418;18.882;2024-01-15T12:24:57;4.88;;;2.53;;
38379;SDS011;38377;47.418;18.882;2024-01-15T12:27:23;3.55;;;2.50;;
38379;SDS011;38377;47.418;18.882;2024-01-15T12:29:49;5.13;;;2.53;;
38379;SDS011;38377;47.418;18.882;2024-01-15T12:32:14;3.85;;;2.20;;
38379;SDS011;38377;47.418;18.882;2024-01-15T12:34:43;4.30;;;2.17;;
38379;SDS011;38377;47.418;18.882;2024-01-15T12:37:09;4.50;;;2.55;;
38379;SDS011;38377;47.418;18.882;2024-01-15T12:39:35;5.73;;;2.77;;
38379;SDS011;38377;47.418;18.882;2024-01-15T12:42:01;4.43;;;2.38;;
38379;SDS011;38377;47.418;18.882;2024-01-15T12:44:28;3.70;;;1.85;;
38379;SDS011;38377;47.418;18.882;2024-01-15T12:46:54;3.38;;;2.10;;
38379;SDS011;38377;47.418;18.882;2024-01-15T12:49:20;4.20;;;2.08;;
38379;SDS011;38377;47.418;18.882;2024-01-15T12:51:54;3.30;;;2.05;;
38379;SDS011;38377;47.418;18.882;2024-01-15T12:54:22;3.97;;;2.40;;
38379;SDS011;38377;47.418;18.882;2024-01-15T12:56:49;5.30;;;2.78;;
38379;SDS011;38377;47.418;18.882;2024-01-15T12:59:15;4.30;;;3.47;;
38379;SDS011;38377;47.418;18.882;2024-01-15T13:01:41;4.93;;;2.72;;
38379;SDS011;38377;47.418;18.882;2024-01-15T13:04:07;6.40;;;3.50;;
38379;SDS011;38377;47.418;18.882;2024-01-15T13:06:34;5.47;;;3.20;;
38379;SDS011;38377;47.418;18.882;2024-01-15T13:09:00;4.37;;;2.50;;
38379;SDS011;38377;47.418;18.882;2024-01-15T13:11:26;3.53;;;2.28;;
38379;SDS011;38377;47.418;18.882;2024-01-15T13:13:55;4.85;;;2.92;;
38379;SDS011;38377;47.418;18.882;2024-01-15T13:16:20;5.53;;;2.50;;
38379;SDS011;38377;47.418;18.882;2024-01-15T13:18:46;7.32;;;2.58;;
38379;SDS011;38377;47.418;18.882;2024-01-15T13:21:12;4.13;;;2.70;;
38379;SDS011;38377;47.418;18.882;2024-01-15T13:23:37;4.68;;;2.53;;
38379;SDS011;38377;47.418;18.882;2024-01-15T13:26:04;3.73;;;2.30;;
38379;SDS011;38377;47.418;18.882;2024-01-15T13:28:30;4.57;;;3.28;;
38379;SDS011;38377;47.418;18.882;2024-01-15T13:30:55;8.07;;;4.15;;
38379;SDS011;38377;47.418;18.882;2024-01-15T13:33:21;12.65;;;6.63;;
38379;SDS011;38377;47.418;18.882;2024-01-15T13:35:47;12.55;;;6.43;;
38379;SDS011;38377;47.418;18.882;2024-01-15T13:38:15;7.88;;;3.80;;
38379;SDS011;38377;47.418;18.882;2024-01-15T13:40:41;4.63;;;2.97;;
38379;SDS011;38377;47.418;18.882;2024-01-15T13:43:06;5.25;;;2.67;;
38379;SDS011;38377;47.418;18.882;2024-01-15T13:45:33;4.35;;;2.08;;
38379;SDS011;38377;47.418;18.882;2024-01-15T13:48:00;5.20;;;2.53;;
38379;SDS011;38377;47.418;18.882;2024-01-15T13:50:30;4.28;;;3.00;;
38379;SDS011;38377;47.418;18.882;2024-01-15T13:55:31;5.45;;;2.20;;
38379;SDS011;38377;47.418;18.882;2024-01-15T13:57:57;5.33;;;2.70;;
38379;SDS011;38377;47.418;18.882;2024-01-15T14:00:22;4.38;;;2.17;;
38379;SDS011;38377;47.418;18.882;2024-01-15T14:02:48;4.83;;;2.40;;
38379;SDS011;38377;47.418;18.882;2024-01-15T14:05:14;3.85;;;2.35;;
38379;SDS011;38377;47.418;18.882;2024-01-15T14:07:41;5.10;;;3.47;;
38379;SDS011;38377;47.418;18.882;2024-01-15T14:10:09;5.00;;;3.73;;
38379;SDS011;38377;47.418;18.882;2024-01-15T14:12:35;8.67;;;2.90;;
38379;SDS011;38377;47.418;18.882;2024-01-15T14:15:01;4.53;;;2.73;;
38379;SDS011;38377;47.418;18.882;2024-01-15T14:17:32;7.53;;;3.30;;
38379;SDS011;38377;47.418;18.882;2024-01-15T14:19:57;4.17;;;2.83;;
38379;SDS011;38377;47.418;18.882;2024-01-15T14:22:23;3.90;;;2.70;;
38379;SDS011;38377;47.418;18.882;2024-01-15T14:24:48;4.97;;;2.93;;
38379;SDS011;38377;47.418;18.882;2024-01-15T14:27:15;4.47;;;2.40;;
38379;SDS011;38377;47.418;18.882;2024-01-15T14:29:41;5.43;;;3.20;;
38379;SDS011;38377;47.418;18.882;2024-01-15T14:32:07;5.70;;;3.17;;
38379;SDS011;38377;47.418;18.882;2024-01-15T14:34:32;6.27;;;3.53;;
38379;SDS011;38377;47.418;18.882;2024-01-15T14:36:58;5.80;;;3.37;;
38379;SDS011;38377;47.418;18.882;2024-01-15T14:39:26;5.53;;;2.70;;